KMRC/MRC METAR and TAF weather

Enter ICAO airport designator
Station Type Date Time Source
KMRC METAR 2021/07/26 14:35 UTC NOAA

KMRC 261435Z AUTO 00000KT 5SM HZ CLR 29/26 A2999 RMK A01


Station Type Date Time Source
KMRC Decoded METAR 2021/07/26 14:35 UTC NOAA

Columbia / Maury County, TN, United States (KMRC) 35-33N 087-11W
Jul 26, 2021 - 10:35 AM EDT / 2021.07.26 1435 UTC
Wind: Calm:0
Visibility: 5 mile(s):0
Sky conditions: clear
Weather: haze
Temperature: 84 F (29 C)
Dew Point: 78 F (26 C)
Relative Humidity: 83%
Pressure (altimeter): 29.99 in. Hg (1015 hPa)
ob: KMRC 261435Z AUTO 00000KT 5SM HZ CLR 29/26 A2999 RMK A01
cycle: 14

Station Type Date Time Source
KMRC TAF 2009/08/31 19:45 UTC NOAA

METAR KMRC 311945Z AUTO 06008KT 10SM CLR 26/12 A3010
RMK AO1 T02550116 $

Example: see airport list